sensor_id;sensor_type;location;lat;lon;timestamp;P1;durP1;ratioP1;P2;durP2;ratioP2
26702;SDS011;14316;51.074;3.704;2023-07-31T00:02:22;17.98;;;7.85;;
26702;SDS011;14316;51.074;3.704;2023-07-31T00:04:48;15.27;;;6.88;;
26702;SDS011;14316;51.074;3.704;2023-07-31T00:07:15;19.00;;;6.97;;
26702;SDS011;14316;51.074;3.704;2023-07-31T00:09:40;17.13;;;7.05;;
26702;SDS011;14316;51.074;3.704;2023-07-31T00:12:06;20.60;;;8.02;;
26702;SDS011;14316;51.074;3.704;2023-07-31T00:14:33;20.25;;;8.15;;
26702;SDS011;14316;51.074;3.704;2023-07-31T00:16:59;17.48;;;6.63;;
26702;SDS011;14316;51.074;3.704;2023-07-31T00:19:25;15.45;;;7.20;;
26702;SDS011;14316;51.074;3.704;2023-07-31T00:21:51;14.20;;;5.60;;
26702;SDS011;14316;51.074;3.704;2023-07-31T00:24:17;24.88;;;8.88;;
26702;SDS011;14316;51.074;3.704;2023-07-31T00:26:43;20.48;;;8.35;;
26702;SDS011;14316;51.074;3.704;2023-07-31T00:29:08;16.00;;;6.57;;
26702;SDS011;14316;51.074;3.704;2023-07-31T00:31:35;16.67;;;7.13;;
26702;SDS011;14316;51.074;3.704;2023-07-31T00:34:01;20.85;;;8.45;;
26702;SDS011;14316;51.074;3.704;2023-07-31T00:36:27;16.67;;;7.88;;
26702;SDS011;14316;51.074;3.704;2023-07-31T00:38:52;18.15;;;8.25;;
26702;SDS011;14316;51.074;3.704;2023-07-31T00:41:18;17.02;;;6.30;;
26702;SDS011;14316;51.074;3.704;2023-07-31T00:43:44;17.52;;;6.75;;
26702;SDS011;14316;51.074;3.704;2023-07-31T00:46:10;21.23;;;8.10;;
26702;SDS011;14316;51.074;3.704;2023-07-31T00:48:36;15.43;;;7.97;;
26702;SDS011;14316;51.074;3.704;2023-07-31T00:51:03;12.50;;;5.40;;
26702;SDS011;14316;51.074;3.704;2023-07-31T00:53:29;15.40;;;7.68;;
26702;SDS011;14316;51.074;3.704;2023-07-31T00:55:55;14.10;;;5.50;;
26702;SDS011;14316;51.074;3.704;2023-07-31T00:58:22;15.48;;;6.35;;
26702;SDS011;14316;51.074;3.704;2023-07-31T01:00:48;18.80;;;7.20;;
26702;SDS011;14316;51.074;3.704;2023-07-31T01:03:15;17.27;;;7.13;;
26702;SDS011;14316;51.074;3.704;2023-07-31T01:08:41;18.48;;;7.60;;
26702;SDS011;14316;51.074;3.704;2023-07-31T01:11:25;17.00;;;7.50;;
26702;SDS011;14316;51.074;3.704;2023-07-31T01:13:54;16.80;;;7.65;;
26702;SDS011;14316;51.074;3.704;2023-07-31T01:16:20;15.05;;;5.57;;
26702;SDS011;14316;51.074;3.704;2023-07-31T01:18:46;20.25;;;7.65;;
26702;SDS011;14316;51.074;3.704;2023-07-31T01:26:27;12.50;;;4.65;;
26702;SDS011;14316;51.074;3.704;2023-07-31T01:29:03;13.10;;;5.55;;
26702;SDS011;14316;51.074;3.704;2023-07-31T01:34:07;17.77;;;6.10;;
26702;SDS011;14316;51.074;3.704;2023-07-31T01:36:35;18.42;;;6.57;;
26702;SDS011;14316;51.074;3.704;2023-07-31T01:39:01;14.02;;;5.22;;
26702;SDS011;14316;51.074;3.704;2023-07-31T01:41:28;16.85;;;7.00;;
26702;SDS011;14316;51.074;3.704;2023-07-31T01:43:55;17.98;;;7.32;;
26702;SDS011;14316;51.074;3.704;2023-07-31T01:46:21;17.17;;;7.32;;
26702;SDS011;14316;51.074;3.704;2023-07-31T01:48:46;14.57;;;5.60;;
26702;SDS011;14316;51.074;3.704;2023-07-31T01:51:12;15.98;;;7.03;;
26702;SDS011;14316;51.074;3.704;2023-07-31T01:53:38;15.90;;;5.80;;
26702;SDS011;14316;51.074;3.704;2023-07-31T01:56:05;17.92;;;6.55;;
26702;SDS011;14316;51.074;3.704;2023-07-31T01:58:31;17.88;;;7.28;;
26702;SDS011;14316;51.074;3.704;2023-07-31T02:00:56;16.25;;;6.93;;
26702;SDS011;14316;51.074;3.704;2023-07-31T02:03:22;16.48;;;6.03;;
26702;SDS011;14316;51.074;3.704;2023-07-31T02:05:48;18.75;;;6.25;;
26702;SDS011;14316;51.074;3.704;2023-07-31T02:08:15;9.95;;;5.63;;
26702;SDS011;14316;51.074;3.704;2023-07-31T02:10:41;16.10;;;6.57;;
26702;SDS011;14316;51.074;3.704;2023-07-31T02:13:08;16.00;;;6.57;;
26702;SDS011;14316;51.074;3.704;2023-07-31T02:15:34;14.52;;;6.88;;
26702;SDS011;14316;51.074;3.704;2023-07-31T02:18:00;16.95;;;6.80;;
26702;SDS011;14316;51.074;3.704;2023-07-31T02:20:27;14.60;;;6.10;;
26702;SDS011;14316;51.074;3.704;2023-07-31T02:22:53;12.40;;;6.15;;
26702;SDS011;14316;51.074;3.704;2023-07-31T02:25:19;13.98;;;6.60;;
26702;SDS011;14316;51.074;3.704;2023-07-31T02:27:44;15.65;;;6.03;;
26702;SDS011;14316;51.074;3.704;2023-07-31T02:30:11;16.92;;;6.22;;
26702;SDS011;14316;51.074;3.704;2023-07-31T02:32:37;14.18;;;5.75;;
26702;SDS011;14316;51.074;3.704;2023-07-31T02:35:03;17.45;;;6.50;;
26702;SDS011;14316;51.074;3.704;2023-07-31T02:37:29;17.95;;;7.78;;
26702;SDS011;14316;51.074;3.704;2023-07-31T02:39:55;15.25;;;5.57;;
26702;SDS011;14316;51.074;3.704;2023-07-31T02:42:21;13.60;;;6.32;;
26702;SDS011;14316;51.074;3.704;2023-07-31T02:44:48;13.02;;;5.82;;
26702;SDS011;14316;51.074;3.704;2023-07-31T02:47:16;14.82;;;6.05;;
26702;SDS011;14316;51.074;3.704;2023-07-31T02:49:42;17.42;;;6.38;;
26702;SDS011;14316;51.074;3.704;2023-07-31T02:52:08;15.57;;;6.32;;
26702;SDS011;14316;51.074;3.704;2023-07-31T02:54:33;17.42;;;6.70;;
26702;SDS011;14316;51.074;3.704;2023-07-31T02:57:00;16.70;;;6.32;;
26702;SDS011;14316;51.074;3.704;2023-07-31T02:59:27;22.88;;;6.97;;
26702;SDS011;14316;51.074;3.704;2023-07-31T03:01:53;18.15;;;7.00;;
26702;SDS011;14316;51.074;3.704;2023-07-31T03:04:19;17.45;;;6.82;;
26702;SDS011;14316;51.074;3.704;2023-07-31T03:06:45;18.65;;;6.95;;
26702;SDS011;14316;51.074;3.704;2023-07-31T03:09:11;17.25;;;6.30;;
26702;SDS011;14316;51.074;3.704;2023-07-31T03:11:37;12.38;;;5.60;;
26702;SDS011;14316;51.074;3.704;2023-07-31T03:14:02;16.95;;;6.88;;
26702;SDS011;14316;51.074;3.704;2023-07-31T03:16:28;18.27;;;7.28;;
26702;SDS011;14316;51.074;3.704;2023-07-31T03:18:54;21.58;;;7.63;;
26702;SDS011;14316;51.074;3.704;2023-07-31T03:21:21;20.35;;;7.18;;
26702;SDS011;14316;51.074;3.704;2023-07-31T03:23:47;20.02;;;7.75;;
26702;SDS011;14316;51.074;3.704;2023-07-31T03:26:13;19.08;;;7.88;;
26702;SDS011;14316;51.074;3.704;2023-07-31T03:28:38;19.48;;;7.82;;
26702;SDS011;14316;51.074;3.704;2023-07-31T03:31:04;21.58;;;8.20;;
26702;SDS011;14316;51.074;3.704;2023-07-31T03:33:31;23.58;;;8.88;;
26702;SDS011;14316;51.074;3.704;2023-07-31T03:35:57;20.08;;;9.15;;
26702;SDS011;14316;51.074;3.704;2023-07-31T03:38:23;20.67;;;8.88;;
26702;SDS011;14316;51.074;3.704;2023-07-31T03:40:49;22.02;;;9.27;;
26702;SDS011;14316;51.074;3.704;2023-07-31T03:43:15;23.75;;;10.13;;
26702;SDS011;14316;51.074;3.704;2023-07-31T03:45:41;23.40;;;10.40;;
26702;SDS011;14316;51.074;3.704;2023-07-31T03:48:07;21.30;;;9.70;;
26702;SDS011;14316;51.074;3.704;2023-07-31T03:50:33;23.08;;;10.00;;
26702;SDS011;14316;51.074;3.704;2023-07-31T03:52:59;27.05;;;10.18;;
26702;SDS011;14316;51.074;3.704;2023-07-31T03:55:25;22.35;;;9.75;;
26702;SDS011;14316;51.074;3.704;2023-07-31T03:57:52;25.15;;;10.65;;
26702;SDS011;14316;51.074;3.704;2023-07-31T04:00:17;21.08;;;10.60;;
26702;SDS011;14316;51.074;3.704;2023-07-31T04:02:43;22.17;;;9.60;;
26702;SDS011;14316;51.074;3.704;2023-07-31T04:05:09;26.88;;;11.23;;
26702;SDS011;14316;51.074;3.704;2023-07-31T04:07:35;25.23;;;11.05;;
26702;SDS011;14316;51.074;3.704;2023-07-31T04:10:02;23.58;;;9.55;;
26702;SDS011;14316;51.074;3.704;2023-07-31T04:12:29;31.17;;;12.27;;
26702;SDS011;14316;51.074;3.704;2023-07-31T04:14:54;26.70;;;11.75;;
26702;SDS011;14316;51.074;3.704;2023-07-31T04:17:20;25.40;;;11.43;;
26702;SDS011;14316;51.074;3.704;2023-07-31T04:19:46;21.88;;;10.77;;
26702;SDS011;14316;51.074;3.704;2023-07-31T04:22:13;27.60;;;11.00;;
26702;SDS011;14316;51.074;3.704;2023-07-31T04:24:39;25.95;;;11.38;;
26702;SDS011;14316;51.074;3.704;2023-07-31T04:27:05;25.70;;;10.55;;
26702;SDS011;14316;51.074;3.704;2023-07-31T04:29:31;21.92;;;10.82;;
26702;SDS011;14316;51.074;3.704;2023-07-31T04:31:56;19.92;;;10.40;;
26702;SDS011;14316;51.074;3.704;2023-07-31T04:34:23;20.73;;;9.98;;
26702;SDS011;14316;51.074;3.704;2023-07-31T04:36:49;17.42;;;8.60;;
26702;SDS011;14316;51.074;3.704;2023-07-31T04:39:15;21.25;;;9.52;;
26702;SDS011;14316;51.074;3.704;2023-07-31T04:41:41;11.15;;;5.53;;
26702;SDS011;14316;51.074;3.704;2023-07-31T04:44:07;14.88;;;6.97;;
26702;SDS011;14316;51.074;3.704;2023-07-31T04:46:33;17.23;;;9.63;;
26702;SDS011;14316;51.074;3.704;2023-07-31T04:48:59;12.40;;;5.78;;
26702;SDS011;14316;51.074;3.704;2023-07-31T04:51:25;11.60;;;6.70;;
26702;SDS011;14316;51.074;3.704;2023-07-31T04:53:51;16.38;;;9.50;;
26702;SDS011;14316;51.074;3.704;2023-07-31T04:56:17;21.23;;;9.55;;
26702;SDS011;14316;51.074;3.704;2023-07-31T04:58:43;15.52;;;7.50;;
26702;SDS011;14316;51.074;3.704;2023-07-31T05:01:09;18.20;;;8.40;;
26702;SDS011;14316;51.074;3.704;2023-07-31T05:03:34;20.08;;;9.20;;
26702;SDS011;14316;51.074;3.704;2023-07-31T05:06:00;11.80;;;6.65;;
26702;SDS011;14316;51.074;3.704;2023-07-31T05:08:26;16.50;;;8.13;;
26702;SDS011;14316;51.074;3.704;2023-07-31T05:10:53;16.23;;;8.13;;
26702;SDS011;14316;51.074;3.704;2023-07-31T05:13:18;9.27;;;5.80;;
26702;SDS011;14316;51.074;3.704;2023-07-31T05:15:45;17.23;;;8.27;;
26702;SDS011;14316;51.074;3.704;2023-07-31T05:18:11;13.27;;;7.25;;
26702;SDS011;14316;51.074;3.704;2023-07-31T05:20:36;17.38;;;8.60;;
26702;SDS011;14316;51.074;3.704;2023-07-31T05:23:02;15.27;;;8.70;;
26702;SDS011;14316;51.074;3.704;2023-07-31T05:25:28;14.68;;;8.73;;
26702;SDS011;14316;51.074;3.704;2023-07-31T05:27:54;14.93;;;8.68;;
26702;SDS011;14316;51.074;3.704;2023-07-31T05:30:20;14.40;;;7.75;;
26702;SDS011;14316;51.074;3.704;2023-07-31T05:32:46;17.30;;;9.73;;
26702;SDS011;14316;51.074;3.704;2023-07-31T05:35:12;19.92;;;9.38;;
26702;SDS011;14316;51.074;3.704;2023-07-31T05:37:38;16.42;;;9.88;;
26702;SDS011;14316;51.074;3.704;2023-07-31T05:40:04;16.63;;;9.23;;
26702;SDS011;14316;51.074;3.704;2023-07-31T05:42:30;17.15;;;10.02;;
26702;SDS011;14316;51.074;3.704;2023-07-31T05:44:56;14.82;;;9.38;;
26702;SDS011;14316;51.074;3.704;2023-07-31T05:47:22;12.70;;;7.30;;
26702;SDS011;14316;51.074;3.704;2023-07-31T05:49:49;14.23;;;9.45;;
26702;SDS011;14316;51.074;3.704;2023-07-31T05:52:17;13.90;;;9.45;;
26702;SDS011;14316;51.074;3.704;2023-07-31T05:54:44;16.95;;;8.32;;
26702;SDS011;14316;51.074;3.704;2023-07-31T05:57:11;12.02;;;7.32;;
26702;SDS011;14316;51.074;3.704;2023-07-31T05:59:37;11.73;;;7.97;;
26702;SDS011;14316;51.074;3.704;2023-07-31T06:02:03;7.90;;;5.22;;
26702;SDS011;14316;51.074;3.704;2023-07-31T06:04:29;13.05;;;8.73;;
26702;SDS011;14316;51.074;3.704;2023-07-31T06:06:56;13.68;;;8.82;;
26702;SDS011;14316;51.074;3.704;2023-07-31T06:09:21;12.73;;;8.85;;
26702;SDS011;14316;51.074;3.704;2023-07-31T06:11:47;15.13;;;7.82;;
26702;SDS011;14316;51.074;3.704;2023-07-31T06:14:13;11.20;;;6.15;;
26702;SDS011;14316;51.074;3.704;2023-07-31T06:16:39;15.75;;;8.25;;
26702;SDS011;14316;51.074;3.704;2023-07-31T06:19:05;17.30;;;9.60;;
26702;SDS011;14316;51.074;3.704;2023-07-31T06:21:32;16.20;;;7.80;;
26702;SDS011;14316;51.074;3.704;2023-07-31T06:23:58;15.27;;;7.55;;
26702;SDS011;14316;51.074;3.704;2023-07-31T06:26:24;14.73;;;8.93;;
26702;SDS011;14316;51.074;3.704;2023-07-31T06:28:50;11.88;;;6.78;;
26702;SDS011;14316;51.074;3.704;2023-07-31T06:31:16;14.27;;;8.60;;
26702;SDS011;14316;51.074;3.704;2023-07-31T06:33:45;12.38;;;7.15;;
26702;SDS011;14316;51.074;3.704;2023-07-31T06:36:12;16.13;;;6.63;;
26702;SDS011;14316;51.074;3.704;2023-07-31T06:38:37;14.73;;;8.10;;
26702;SDS011;14316;51.074;3.704;2023-07-31T06:41:03;17.83;;;8.07;;
26702;SDS011;14316;51.074;3.704;2023-07-31T06:43:29;11.60;;;6.38;;
26702;SDS011;14316;51.074;3.704;2023-07-31T06:45:55;11.90;;;7.38;;
26702;SDS011;14316;51.074;3.704;2023-07-31T06:48:21;13.57;;;7.35;;
26702;SDS011;14316;51.074;3.704;2023-07-31T06:50:47;15.82;;;8.70;;
26702;SDS011;14316;51.074;3.704;2023-07-31T06:53:13;14.25;;;7.85;;
26702;SDS011;14316;51.074;3.704;2023-07-31T06:55:39;13.95;;;8.40;;
26702;SDS011;14316;51.074;3.704;2023-07-31T06:58:05;9.88;;;5.63;;
26702;SDS011;14316;51.074;3.704;2023-07-31T07:00:31;15.13;;;7.68;;
26702;SDS011;14316;51.074;3.704;2023-07-31T07:02:57;15.60;;;7.75;;
26702;SDS011;14316;51.074;3.704;2023-07-31T07:05:23;13.25;;;7.70;;
26702;SDS011;14316;51.074;3.704;2023-07-31T07:07:49;13.57;;;7.72;;
26702;SDS011;14316;51.074;3.704;2023-07-31T07:10:18;8.07;;;5.82;;
26702;SDS011;14316;51.074;3.704;2023-07-31T07:12:45;10.25;;;4.72;;
26702;SDS011;14316;51.074;3.704;2023-07-31T07:15:11;12.93;;;6.00;;
26702;SDS011;14316;51.074;3.704;2023-07-31T07:17:37;9.07;;;5.68;;
26702;SDS011;14316;51.074;3.704;2023-07-31T07:20:03;9.32;;;5.65;;
26702;SDS011;14316;51.074;3.704;2023-07-31T07:22:29;6.03;;;4.68;;
26702;SDS011;14316;51.074;3.704;2023-07-31T07:24:55;9.13;;;6.05;;
26702;SDS011;14316;51.074;3.704;2023-07-31T07:27:21;8.45;;;4.60;;
26702;SDS011;14316;51.074;3.704;2023-07-31T07:29:47;8.38;;;5.50;;
26702;SDS011;14316;51.074;3.704;2023-07-31T07:32:16;10.05;;;4.93;;
26702;SDS011;14316;51.074;3.704;2023-07-31T07:34:43;8.30;;;5.45;;
26702;SDS011;14316;51.074;3.704;2023-07-31T07:37:09;7.85;;;5.22;;
26702;SDS011;14316;51.074;3.704;2023-07-31T07:39:35;8.25;;;5.03;;
26702;SDS011;14316;51.074;3.704;2023-07-31T07:42:01;8.82;;;4.88;;
26702;SDS011;14316;51.074;3.704;2023-07-31T07:44:27;7.35;;;4.68;;
26702;SDS011;14316;51.074;3.704;2023-07-31T07:46:52;10.98;;;5.30;;
26702;SDS011;14316;51.074;3.704;2023-07-31T07:49:18;5.38;;;3.40;;
26702;SDS011;14316;51.074;3.704;2023-07-31T07:51:47;5.80;;;3.63;;
26702;SDS011;14316;51.074;3.704;2023-07-31T07:54:13;5.95;;;4.38;;
26702;SDS011;14316;51.074;3.704;2023-07-31T07:56:39;8.77;;;4.70;;
26702;SDS011;14316;51.074;3.704;2023-07-31T07:59:05;8.60;;;4.93;;
26702;SDS011;14316;51.074;3.704;2023-07-31T08:01:31;11.20;;;5.28;;
26702;SDS011;14316;51.074;3.704;2023-07-31T08:03:57;8.27;;;4.90;;
26702;SDS011;14316;51.074;3.704;2023-07-31T08:06:23;6.97;;;3.42;;
26702;SDS011;14316;51.074;3.704;2023-07-31T08:08:49;8.38;;;4.63;;
26702;SDS011;14316;51.074;3.704;2023-07-31T08:11:15;6.97;;;3.92;;
26702;SDS011;14316;51.074;3.704;2023-07-31T08:13:41;4.65;;;3.47;;
26702;SDS011;14316;51.074;3.704;2023-07-31T08:16:06;6.95;;;3.53;;
26702;SDS011;14316;51.074;3.704;2023-07-31T08:18:32;6.15;;;3.67;;
26702;SDS011;14316;51.074;3.704;2023-07-31T08:20:58;5.32;;;3.38;;
26702;SDS011;14316;51.074;3.704;2023-07-31T08:23:24;5.60;;;2.60;;
26702;SDS011;14316;51.074;3.704;2023-07-31T08:25:53;3.45;;;2.78;;
26702;SDS011;14316;51.074;3.704;2023-07-31T08:28:19;3.63;;;2.65;;
26702;SDS011;14316;51.074;3.704;2023-07-31T08:30:45;5.28;;;2.90;;
26702;SDS011;14316;51.074;3.704;2023-07-31T08:33:10;3.90;;;2.92;;
26702;SDS011;14316;51.074;3.704;2023-07-31T08:35:36;6.38;;;2.50;;
26702;SDS011;14316;51.074;3.704;2023-07-31T08:38:03;4.22;;;3.10;;
26702;SDS011;14316;51.074;3.704;2023-07-31T08:40:29;4.38;;;2.63;;
26702;SDS011;14316;51.074;3.704;2023-07-31T08:42:55;5.78;;;3.35;;
26702;SDS011;14316;51.074;3.704;2023-07-31T08:45:27;3.05;;;2.08;;
26702;SDS011;14316;51.074;3.704;2023-07-31T08:47:53;4.65;;;2.70;;
26702;SDS011;14316;51.074;3.704;2023-07-31T08:50:21;4.90;;;2.75;;
26702;SDS011;14316;51.074;3.704;2023-07-31T08:52:47;4.95;;;3.10;;
26702;SDS011;14316;51.074;3.704;2023-07-31T08:55:15;3.20;;;2.70;;
26702;SDS011;14316;51.074;3.704;2023-07-31T08:57:41;4.00;;;2.85;;
26702;SDS011;14316;51.074;3.704;2023-07-31T09:00:08;4.10;;;2.65;;
26702;SDS011;14316;51.074;3.704;2023-07-31T09:05:10;5.38;;;3.25;;
26702;SDS011;14316;51.074;3.704;2023-07-31T09:07:37;3.92;;;3.22;;
26702;SDS011;14316;51.074;3.704;2023-07-31T09:10:03;7.78;;;3.38;;
26702;SDS011;14316;51.074;3.704;2023-07-31T09:12:30;3.50;;;2.90;;
26702;SDS011;14316;51.074;3.704;2023-07-31T09:14:57;6.13;;;3.92;;
26702;SDS011;14316;51.074;3.704;2023-07-31T09:17:33;4.90;;;3.35;;
26702;SDS011;14316;51.074;3.704;2023-07-31T09:20:20;6.50;;;3.65;;
26702;SDS011;14316;51.074;3.704;2023-07-31T09:22:48;2.70;;;2.30;;
26702;SDS011;14316;51.074;3.704;2023-07-31T09:25:18;4.47;;;3.83;;
26702;SDS011;14316;51.074;3.704;2023-07-31T09:27:46;4.65;;;3.35;;
26702;SDS011;14316;51.074;3.704;2023-07-31T09:30:14;5.57;;;4.07;;
26702;SDS011;14316;51.074;3.704;2023-07-31T09:32:40;5.03;;;3.38;;
26702;SDS011;14316;51.074;3.704;2023-07-31T09:38:12;6.63;;;4.45;;
26702;SDS011;14316;51.074;3.704;2023-07-31T09:40:40;3.97;;;2.58;;
26702;SDS011;14316;51.074;3.704;2023-07-31T09:43:08;6.32;;;2.78;;
26702;SDS011;14316;51.074;3.704;2023-07-31T09:45:38;7.35;;;4.18;;
26702;SDS011;14316;51.074;3.704;2023-07-31T09:48:17;4.53;;;3.45;;
26702;SDS011;14316;51.074;3.704;2023-07-31T09:50:44;5.63;;;3.63;;
26702;SDS011;14316;51.074;3.704;2023-07-31T09:53:11;6.43;;;4.93;;
26702;SDS011;14316;51.074;3.704;2023-07-31T09:55:37;7.88;;;4.70;;
26702;SDS011;14316;51.074;3.704;2023-07-31T09:58:05;9.38;;;5.03;;
26702;SDS011;14316;51.074;3.704;2023-07-31T10:00:32;7.30;;;5.00;;
26702;SDS011;14316;51.074;3.704;2023-07-31T10:03:00;6.80;;;4.57;;
26702;SDS011;14316;51.074;3.704;2023-07-31T10:05:38;8.27;;;5.18;;
26702;SDS011;14316;51.074;3.704;2023-07-31T10:08:09;6.35;;;4.05;;
26702;SDS011;14316;51.074;3.704;2023-07-31T10:10:37;8.43;;;4.40;;
26702;SDS011;14316;51.074;3.704;2023-07-31T10:13:06;8.38;;;4.63;;
26702;SDS011;14316;51.074;3.704;2023-07-31T10:15:32;5.93;;;4.10;;
26702;SDS011;14316;51.074;3.704;2023-07-31T10:17:59;6.22;;;4.22;;
26702;SDS011;14316;51.074;3.704;2023-07-31T10:20:26;7.22;;;4.68;;
26702;SDS011;14316;51.074;3.704;2023-07-31T10:22:54;4.05;;;3.20;;
26702;SDS011;14316;51.074;3.704;2023-07-31T10:25:20;4.72;;;2.95;;
26702;SDS011;14316;51.074;3.704;2023-07-31T10:27:47;8.73;;;5.53;;
26702;SDS011;14316;51.074;3.704;2023-07-31T10:30:17;6.88;;;4.88;;
26702;SDS011;14316;51.074;3.704;2023-07-31T10:32:46;7.30;;;5.80;;
26702;SDS011;14316;51.074;3.704;2023-07-31T10:35:15;8.73;;;6.35;;
26702;SDS011;14316;51.074;3.704;2023-07-31T10:37:42;6.90;;;5.82;;
26702;SDS011;14316;51.074;3.704;2023-07-31T10:45:14;7.50;;;5.18;;
26702;SDS011;14316;51.074;3.704;2023-07-31T10:48:12;7.47;;;5.63;;
26702;SDS011;14316;51.074;3.704;2023-07-31T10:50:46;8.65;;;5.15;;
26702;SDS011;14316;51.074;3.704;2023-07-31T10:53:29;7.75;;;4.53;;
26702;SDS011;14316;51.074;3.704;2023-07-31T10:58:24;9.07;;;5.32;;
26702;SDS011;14316;51.074;3.704;2023-07-31T11:00:54;6.85;;;5.60;;
26702;SDS011;14316;51.074;3.704;2023-07-31T11:03:24;9.00;;;4.82;;
26702;SDS011;14316;51.074;3.704;2023-07-31T11:06:03;5.18;;;3.65;;
26702;SDS011;14316;51.074;3.704;2023-07-31T11:08:33;8.10;;;4.90;;
26702;SDS011;14316;51.074;3.704;2023-07-31T11:13:42;7.05;;;4.72;;
26702;SDS011;14316;51.074;3.704;2023-07-31T11:16:13;5.93;;;4.67;;
26702;SDS011;14316;51.074;3.704;2023-07-31T11:18:40;5.88;;;4.30;;
26702;SDS011;14316;51.074;3.704;2023-07-31T11:21:07;5.07;;;4.07;;
26702;SDS011;14316;51.074;3.704;2023-07-31T11:23:36;8.18;;;4.32;;
26702;SDS011;14316;51.074;3.704;2023-07-31T11:26:04;5.88;;;4.20;;
26702;SDS011;14316;51.074;3.704;2023-07-31T11:28:31;6.18;;;3.65;;
26702;SDS011;14316;51.074;3.704;2023-07-31T11:30:58;6.60;;;3.65;;
26702;SDS011;14316;51.074;3.704;2023-07-31T11:33:25;6.57;;;4.50;;
26702;SDS011;14316;51.074;3.704;2023-07-31T11:35:51;4.60;;;3.92;;
26702;SDS011;14316;51.074;3.704;2023-07-31T11:38:21;5.97;;;3.90;;
26702;SDS011;14316;51.074;3.704;2023-07-31T11:40:54;5.55;;;3.22;;
26702;SDS011;14316;51.074;3.704;2023-07-31T11:43:24;5.72;;;3.80;;
26702;SDS011;14316;51.074;3.704;2023-07-31T11:45:52;6.28;;;4.22;;
26702;SDS011;14316;51.074;3.704;2023-07-31T11:48:28;6.65;;;3.58;;
26702;SDS011;14316;51.074;3.704;2023-07-31T11:50:58;5.68;;;3.88;;
26702;SDS011;14316;51.074;3.704;2023-07-31T11:53:45;6.05;;;4.05;;
26702;SDS011;14316;51.074;3.704;2023-07-31T11:56:19;4.80;;;3.00;;
26702;SDS011;14316;51.074;3.704;2023-07-31T11:58:46;4.50;;;2.97;;
26702;SDS011;14316;51.074;3.704;2023-07-31T12:01:14;6.78;;;4.85;;
26702;SDS011;14316;51.074;3.704;2023-07-31T12:03:41;4.57;;;3.78;;
26702;SDS011;14316;51.074;3.704;2023-07-31T12:06:08;6.93;;;4.72;;
26702;SDS011;14316;51.074;3.704;2023-07-31T12:08:33;6.03;;;5.30;;
26702;SDS011;14316;51.074;3.704;2023-07-31T12:11:03;7.93;;;5.05;;
26702;SDS011;14316;51.074;3.704;2023-07-31T12:13:30;7.22;;;5.00;;
26702;SDS011;14316;51.074;3.704;2023-07-31T12:15:58;7.55;;;5.50;;
26702;SDS011;14316;51.074;3.704;2023-07-31T12:18:25;6.57;;;4.63;;
26702;SDS011;14316;51.074;3.704;2023-07-31T12:20:56;6.82;;;5.53;;
26702;SDS011;14316;51.074;3.704;2023-07-31T12:23:30;9.23;;;4.88;;
26702;SDS011;14316;51.074;3.704;2023-07-31T12:26:03;10.77;;;5.80;;
26702;SDS011;14316;51.074;3.704;2023-07-31T12:28:40;9.18;;;5.60;;
26702;SDS011;14316;51.074;3.704;2023-07-31T12:31:09;12.75;;;6.40;;
26702;SDS011;14316;51.074;3.704;2023-07-31T12:33:40;10.30;;;7.10;;
26702;SDS011;14316;51.074;3.704;2023-07-31T12:36:08;12.52;;;8.15;;
26702;SDS011;14316;51.074;3.704;2023-07-31T12:38:36;10.13;;;8.45;;
26702;SDS011;14316;51.074;3.704;2023-07-31T12:41:01;12.10;;;9.27;;
26702;SDS011;14316;51.074;3.704;2023-07-31T12:43:27;16.73;;;10.50;;
26702;SDS011;14316;51.074;3.704;2023-07-31T12:45:54;17.00;;;11.57;;
26702;SDS011;14316;51.074;3.704;2023-07-31T12:48:21;17.88;;;10.95;;
26702;SDS011;14316;51.074;3.704;2023-07-31T12:50:47;15.57;;;11.48;;
26702;SDS011;14316;51.074;3.704;2023-07-31T12:53:13;15.85;;;10.50;;
26702;SDS011;14316;51.074;3.704;2023-07-31T12:55:40;13.02;;;8.77;;
26702;SDS011;14316;51.074;3.704;2023-07-31T12:58:05;13.60;;;10.30;;
26702;SDS011;14316;51.074;3.704;2023-07-31T13:00:31;13.77;;;10.48;;
26702;SDS011;14316;51.074;3.704;2023-07-31T13:02:57;11.43;;;7.28;;
26702;SDS011;14316;51.074;3.704;2023-07-31T13:05:25;15.50;;;9.55;;
26702;SDS011;14316;51.074;3.704;2023-07-31T13:07:51;11.88;;;6.32;;
26702;SDS011;14316;51.074;3.704;2023-07-31T13:10:17;9.70;;;5.78;;
26702;SDS011;14316;51.074;3.704;2023-07-31T13:12:43;8.43;;;6.80;;
26702;SDS011;14316;51.074;3.704;2023-07-31T13:15:09;9.07;;;6.70;;
26702;SDS011;14316;51.074;3.704;2023-07-31T13:17:35;8.05;;;5.88;;
26702;SDS011;14316;51.074;3.704;2023-07-31T13:20:02;15.32;;;6.43;;
26702;SDS011;14316;51.074;3.704;2023-07-31T13:22:28;10.75;;;6.80;;
26702;SDS011;14316;51.074;3.704;2023-07-31T13:24:54;9.48;;;5.43;;
26702;SDS011;14316;51.074;3.704;2023-07-31T13:27:20;9.20;;;5.95;;
26702;SDS011;14316;51.074;3.704;2023-07-31T13:29:49;7.50;;;4.80;;
26702;SDS011;14316;51.074;3.704;2023-07-31T13:32:17;9.15;;;4.68;;
26702;SDS011;14316;51.074;3.704;2023-07-31T13:34:44;16.40;;;5.78;;
26702;SDS011;14316;51.074;3.704;2023-07-31T13:37:11;8.18;;;4.47;;
26702;SDS011;14316;51.074;3.704;2023-07-31T13:39:37;13.63;;;4.97;;
26702;SDS011;14316;51.074;3.704;2023-07-31T13:42:04;5.38;;;3.78;;
26702;SDS011;14316;51.074;3.704;2023-07-31T13:44:33;6.53;;;3.67;;
26702;SDS011;14316;51.074;3.704;2023-07-31T13:47:00;8.00;;;4.30;;
26702;SDS011;14316;51.074;3.704;2023-07-31T13:49:26;6.28;;;4.13;;
26702;SDS011;14316;51.074;3.704;2023-07-31T13:51:53;7.15;;;4.72;;
26702;SDS011;14316;51.074;3.704;2023-07-31T13:54:19;5.93;;;4.05;;
26702;SDS011;14316;51.074;3.704;2023-07-31T13:56:45;8.25;;;5.90;;
26702;SDS011;14316;51.074;3.704;2023-07-31T13:59:11;7.32;;;5.00;;
26702;SDS011;14316;51.074;3.704;2023-07-31T14:01:37;7.35;;;4.63;;
26702;SDS011;14316;51.074;3.704;2023-07-31T14:04:03;13.05;;;5.60;;
26702;SDS011;14316;51.074;3.704;2023-07-31T14:06:29;11.68;;;5.35;;
26702;SDS011;14316;51.074;3.704;2023-07-31T14:08:55;9.63;;;6.00;;
26702;SDS011;14316;51.074;3.704;2023-07-31T14:11:21;13.68;;;6.38;;
26702;SDS011;14316;51.074;3.704;2023-07-31T14:13:47;10.85;;;6.35;;
26702;SDS011;14316;51.074;3.704;2023-07-31T14:16:15;9.63;;;6.22;;
26702;SDS011;14316;51.074;3.704;2023-07-31T14:18:41;9.23;;;4.90;;
26702;SDS011;14316;51.074;3.704;2023-07-31T14:21:07;10.73;;;6.03;;
26702;SDS011;14316;51.074;3.704;2023-07-31T14:23:33;9.82;;;5.97;;
26702;SDS011;14316;51.074;3.704;2023-07-31T14:26:00;12.20;;;6.82;;
26702;SDS011;14316;51.074;3.704;2023-07-31T14:28:26;9.10;;;5.47;;
26702;SDS011;14316;51.074;3.704;2023-07-31T14:30:52;10.18;;;5.25;;
26702;SDS011;14316;51.074;3.704;2023-07-31T14:33:18;10.52;;;5.78;;
26702;SDS011;14316;51.074;3.704;2023-07-31T14:35:43;9.90;;;5.85;;
26702;SDS011;14316;51.074;3.704;2023-07-31T14:38:10;12.20;;;5.15;;
26702;SDS011;14316;51.074;3.704;2023-07-31T14:40:36;12.30;;;5.55;;
26702;SDS011;14316;51.074;3.704;2023-07-31T14:43:03;8.75;;;5.80;;
26702;SDS011;14316;51.074;3.704;2023-07-31T14:45:29;14.70;;;6.43;;
26702;SDS011;14316;51.074;3.704;2023-07-31T14:47:55;9.73;;;6.70;;
26702;SDS011;14316;51.074;3.704;2023-07-31T14:50:21;8.68;;;5.13;;
26702;SDS011;14316;51.074;3.704;2023-07-31T14:52:48;8.45;;;5.20;;
26702;SDS011;14316;51.074;3.704;2023-07-31T14:55:14;8.30;;;4.60;;
26702;SDS011;14316;51.074;3.704;2023-07-31T14:57:41;6.20;;;4.85;;
26702;SDS011;14316;51.074;3.704;2023-07-31T15:00:07;7.88;;;5.28;;
26702;SDS011;14316;51.074;3.704;2023-07-31T15:02:36;7.22;;;4.75;;
26702;SDS011;14316;51.074;3.704;2023-07-31T15:05:03;5.57;;;4.10;;